createdAt,value
2019-04-22T00:01:55.027Z,5.17
2019-04-22T00:04:32.308Z,5.43
2019-04-22T00:07:17.427Z,5.10
2019-04-22T00:09:54.870Z,5.00
2019-04-22T00:12:19.628Z,4.67
2019-04-22T00:14:48.342Z,5.27
2019-04-22T00:17:30.074Z,5.50
2019-04-22T00:19:57.702Z,5.30
2019-04-22T00:25:03.496Z,5.30
2019-04-22T00:27:28.098Z,5.57
2019-04-22T00:30:56.093Z,5.60
2019-04-22T00:32:39.641Z,5.53
2019-04-22T00:35:13.252Z,5.93
2019-04-22T00:37:43.726Z,5.60
2019-04-22T00:40:21.028Z,5.67
2019-04-22T00:42:50.189Z,5.50
2019-04-22T00:45:23.985Z,5.83
2019-04-22T00:47:44.896Z,6.03
2019-04-22T00:52:57.960Z,5.63
2019-04-22T00:55:26.268Z,5.53
2019-04-22T00:57:56.205Z,5.27
2019-04-22T01:00:24.698Z,5.60
2019-04-22T01:03:01.656Z,5.70
2019-04-22T01:05:27.870Z,5.47
2019-04-22T01:07:56.842Z,4.97
2019-04-22T01:10:31.963Z,5.73
2019-04-22T01:12:56.941Z,5.37
2019-04-22T01:15:34.343Z,5.67
2019-04-22T01:18:03.943Z,5.73
2019-04-22T01:23:09.579Z,5.23
2019-04-22T01:25:34.145Z,5.87
2019-04-22T01:27:57.262Z,5.30
2019-04-22T01:30:26.583Z,5.53
2019-04-22T01:32:52.137Z,5.47
2019-04-22T01:35:34.589Z,5.93
2019-04-22T01:38:08.038Z,5.83
2019-04-22T01:40:55.627Z,5.90
2019-04-22T01:43:50.261Z,5.83
2019-04-22T01:45:54.399Z,6.20
2019-04-22T01:48:26.588Z,6.00
2019-04-22T01:50:50.072Z,5.70
2019-04-22T01:53:27.469Z,6.27
2019-04-22T01:56:03.370Z,6.47
2019-04-22T01:58:23.873Z,5.90
2019-04-22T02:01:15.955Z,6.03
2019-04-22T02:03:33.257Z,5.60
2019-04-22T02:06:02.502Z,6.43
2019-04-22T02:08:37.994Z,6.23
2019-04-22T02:11:09.360Z,6.27
2019-04-22T02:13:37.913Z,5.93
2019-04-22T02:16:10.105Z,6.23
2019-04-22T02:18:39.341Z,5.60
2019-04-22T02:21:07.273Z,5.37
2019-04-22T02:26:31.424Z,6.00
2019-04-22T02:28:40.156Z,6.07
2019-04-22T02:36:32.571Z,5.53
2019-04-22T02:51:28.530Z,6.30
2019-04-22T02:56:31.771Z,6.27
2019-04-22T03:01:36.527Z,6.00
2019-04-22T03:09:16.402Z,5.27
2019-04-22T03:12:33.001Z,5.90
2019-04-22T03:19:26.262Z,6.33
2019-04-22T03:22:00.213Z,6.30
2019-04-22T03:26:48.914Z,6.20
2019-04-22T03:30:33.668Z,6.20
2019-04-22T03:32:52.802Z,5.63
2019-04-22T03:37:43.239Z,5.40
2019-04-22T03:42:31.922Z,6.50
2019-04-22T03:45:19.669Z,5.60
2019-04-22T03:50:16.371Z,6.27
2019-04-22T03:52:40.784Z,5.93
2019-04-22T04:05:33.468Z,6.40
2019-04-22T04:10:27.801Z,5.90
2019-04-22T04:12:59.912Z,5.90
2019-04-22T04:20:28.586Z,6.40
2019-04-22T04:33:05.028Z,5.33
2019-04-22T04:35:44.561Z,5.97
2019-04-22T04:37:58.774Z,5.80
2019-04-22T04:40:48.749Z,6.57
2019-04-22T04:43:10.010Z,6.20
2019-04-22T04:45:45.105Z,5.40
2019-04-22T04:48:14.477Z,6.60
2019-04-22T04:50:47.081Z,6.20
2019-04-22T04:53:20.946Z,6.60
2019-04-22T04:55:46.787Z,5.60
2019-04-22T05:03:29.812Z,6.10
2019-04-22T05:06:10.293Z,6.40
2019-04-22T05:08:38.553Z,6.23
2019-04-22T05:10:56.180Z,6.03
2019-04-22T05:13:32.882Z,6.13
2019-04-22T05:16:10.862Z,6.10
2019-04-22T05:18:29.330Z,7.07
2019-04-22T05:23:30.417Z,6.87
2019-04-22T05:26:07.474Z,5.90
2019-04-22T05:28:29.984Z,5.70
2019-04-22T05:31:09.712Z,6.07
2019-04-22T05:33:35.021Z,6.60
2019-04-22T05:36:10.156Z,6.80
2019-04-22T05:38:39.903Z,6.10
2019-04-22T05:41:13.822Z,6.50
2019-04-22T05:43:40.798Z,6.53
2019-04-22T05:46:09.242Z,6.13
2019-04-22T05:48:43.964Z,6.93
2019-04-22T05:51:19.547Z,6.70
2019-04-22T05:53:48.377Z,6.40
2019-04-22T05:56:26.779Z,5.77
2019-04-22T05:58:56.553Z,6.17
2019-04-22T06:06:19.422Z,7.23
2019-04-22T06:09:02.255Z,7.00
2019-04-22T06:11:25.761Z,6.70
2019-04-22T06:13:55.006Z,6.27
2019-04-22T06:16:31.049Z,6.53
2019-04-22T06:19:02.828Z,6.50
2019-04-22T06:21:33.713Z,5.90
2019-04-22T06:24:10.627Z,6.23
2019-04-22T06:26:45.848Z,6.43
2019-04-22T06:29:09.204Z,6.20
2019-04-22T06:31:49.947Z,6.40
2019-04-22T06:34:11.901Z,6.37
2019-04-22T06:36:45.017Z,5.70
2019-04-22T06:39:14.310Z,7.40
2019-04-22T06:44:22.713Z,6.90
2019-04-22T06:46:49.169Z,7.53
2019-04-22T06:49:29.039Z,7.33
2019-04-22T06:52:08.736Z,7.50
2019-04-22T06:54:21.729Z,6.40
2019-04-22T06:56:57.671Z,6.30
2019-04-22T06:59:24.969Z,6.53
2019-04-22T07:01:54.567Z,6.43
2019-04-22T07:04:23.225Z,7.13
2019-04-22T07:07:02.124Z,6.23
2019-04-22T07:09:36.663Z,6.27
2019-04-22T07:11:58.871Z,6.00
2019-04-22T07:14:28.633Z,5.57
2019-04-22T07:17:05.159Z,6.37
2019-04-22T07:19:36.188Z,5.80
2019-04-22T07:27:10.606Z,5.23
2019-04-22T07:29:39.078Z,4.90
2019-04-22T07:32:51.604Z,5.00
2019-04-22T07:34:50.385Z,4.37
2019-04-22T07:39:45.375Z,4.53
2019-04-22T07:42:22.278Z,4.30
2019-04-22T07:44:52.881Z,4.63
2019-04-22T07:47:25.618Z,3.80
2019-04-22T07:49:54.229Z,4.07
2019-04-22T07:52:23.129Z,4.03
2019-04-22T07:54:52.452Z,2.70
2019-04-22T07:57:28.722Z,3.20
2019-04-22T08:00:06.372Z,4.60
2019-04-22T08:02:32.779Z,3.23
2019-04-22T08:05:07.428Z,4.07
2019-04-22T08:07:34.600Z,4.47
2019-04-22T08:10:08.775Z,3.40
2019-04-22T08:12:39.170Z,3.50
2019-04-22T08:15:06.120Z,5.00
2019-04-22T08:20:09.200Z,3.83
2019-04-22T08:22:42.662Z,3.50
2019-04-22T08:25:10.137Z,4.07
2019-04-22T08:27:43.657Z,4.13
2019-04-22T08:30:20.497Z,3.63
2019-04-22T08:32:48.914Z,4.83
2019-04-22T08:35:29.588Z,2.97
2019-04-22T08:38:10.338Z,3.23
2019-04-22T08:40:30.694Z,4.30
2019-04-22T08:43:11.510Z,3.57
2019-04-22T08:45:36.592Z,4.93
2019-04-22T08:47:55.268Z,2.80
2019-04-22T08:50:26.698Z,4.77
2019-04-22T08:53:05.749Z,5.33
2019-04-22T09:00:39.710Z,2.50
2019-04-22T09:03:24.334Z,4.87
2019-04-22T09:08:14.355Z,4.60
2019-04-22T09:10:43.268Z,4.90
2019-04-22T09:13:14.516Z,4.57
2019-04-22T09:15:45.496Z,4.50
2019-04-22T09:20:48.933Z,4.40
2019-04-22T09:23:27.161Z,5.00
2019-04-22T09:25:51.057Z,4.70
2019-04-22T09:28:28.688Z,4.13
2019-04-22T09:31:01.928Z,4.43
2019-04-22T09:33:27.438Z,3.97
2019-04-22T09:36:12.789Z,4.63
2019-04-22T09:41:09.389Z,4.50
2019-04-22T09:43:42.795Z,4.43
2019-04-22T09:46:06.551Z,3.50
2019-04-22T09:51:05.380Z,4.30
2019-04-22T09:53:47.257Z,4.20
2019-04-22T09:56:09.729Z,4.50
2019-04-22T09:58:44.763Z,4.47
2019-04-22T10:01:26.174Z,3.60
2019-04-22T10:03:56.461Z,3.93
2019-04-22T10:06:35.556Z,4.40
2019-04-22T10:09:27.410Z,3.30
2019-04-22T10:11:31.568Z,4.73
2019-04-22T10:16:35.717Z,3.73
2019-04-22T10:18:58.795Z,4.57
2019-04-22T10:21:40.269Z,4.20
2019-04-22T10:24:03.437Z,4.63
2019-04-22T10:26:33.438Z,3.97
2019-04-22T10:29:09.065Z,4.00
2019-04-22T10:31:49.951Z,4.57
2019-04-22T10:33:56.082Z,4.70
2019-04-22T10:36:13.023Z,3.07
2019-04-22T10:38:44.414Z,3.90
2019-04-22T10:41:14.478Z,4.47
2019-04-22T10:43:45.364Z,4.03
2019-04-22T10:46:15.839Z,4.73
2019-04-22T10:48:46.227Z,3.10
2019-04-22T10:51:16.913Z,4.23
2019-04-22T10:53:47.177Z,3.87
2019-04-22T10:56:17.008Z,4.00
2019-04-22T10:58:46.771Z,3.23
2019-04-22T11:01:17.792Z,3.67
2019-04-22T11:03:48.972Z,3.17
2019-04-22T11:06:19.215Z,4.87
2019-04-22T11:08:54.396Z,4.43
2019-04-22T11:11:32.664Z,3.00
2019-04-22T11:13:52.031Z,3.90
2019-04-22T11:16:21.574Z,4.10
2019-04-22T11:18:51.737Z,4.57
2019-04-22T11:21:21.347Z,3.53
2019-04-22T11:23:52.386Z,3.57
2019-04-22T11:26:22.100Z,3.60
2019-04-22T11:28:51.846Z,3.73
2019-04-22T11:31:21.365Z,2.97
2019-04-22T11:33:52.355Z,3.13
2019-04-22T11:36:22.168Z,3.20
2019-04-22T11:38:56.408Z,5.03
2019-04-22T11:41:23.570Z,2.77
2019-04-22T11:43:53.664Z,3.53
2019-04-22T11:46:25.249Z,2.63
2019-04-22T11:48:56.210Z,2.50
2019-04-22T11:51:27.576Z,3.50
2019-04-22T11:53:58.788Z,4.03
2019-04-22T11:56:29.426Z,2.67
2019-04-22T11:59:00.668Z,3.37
2019-04-22T12:01:30.864Z,3.50
2019-04-22T12:04:02.175Z,3.97
2019-04-22T12:06:33.730Z,2.30
2019-04-22T12:09:05.657Z,3.90
2019-04-22T12:11:36.518Z,3.10
2019-04-22T12:14:27.771Z,3.20
2019-04-22T12:16:57.623Z,3.20
2019-04-22T12:19:27.244Z,3.80
2019-04-22T12:21:57.195Z,3.47
2019-04-22T12:24:28.120Z,3.40
2019-04-22T12:26:58.118Z,2.00
2019-04-22T12:29:28.975Z,3.60
2019-04-22T12:31:59.688Z,3.30
2019-04-22T12:34:29.446Z,2.33
2019-04-22T12:37:00.387Z,2.53
2019-04-22T12:39:31.520Z,3.70
2019-04-22T12:42:02.679Z,2.60
2019-04-22T12:44:32.842Z,3.97
2019-04-22T12:47:05.376Z,3.40
2019-04-22T12:49:36.711Z,3.47
2019-04-22T12:52:05.437Z,3.30
2019-04-22T12:54:35.204Z,3.10
2019-04-22T12:57:05.860Z,2.80
2019-04-22T12:59:35.523Z,3.20
2019-04-22T13:02:05.082Z,3.87
2019-04-22T13:04:36.175Z,2.60
2019-04-22T13:07:06.169Z,2.60
2019-04-22T13:09:37.045Z,2.80
2019-04-22T13:12:06.993Z,3.33
2019-04-22T13:14:36.956Z,2.97
2019-04-22T13:17:27.295Z,2.70
2019-04-22T13:19:58.380Z,3.10
2019-04-22T13:22:28.075Z,2.70
2019-04-22T13:24:57.965Z,3.17
2019-04-22T13:27:29.041Z,2.20
2019-04-22T13:29:59.494Z,2.47
2019-04-22T13:32:31.332Z,2.50
2019-04-22T13:35:02.132Z,2.40
2019-04-22T13:37:32.757Z,2.33
2019-04-22T13:40:03.526Z,2.10
2019-04-22T13:42:33.402Z,2.50
2019-04-22T13:45:04.137Z,2.80
2019-04-22T13:47:50.606Z,2.40
2019-04-22T13:50:47.754Z,2.80
2019-04-22T13:55:40.870Z,2.23
2019-04-22T13:57:57.185Z,1.87
2019-04-22T14:00:13.715Z,2.20
2019-04-22T14:03:02.447Z,1.70
2019-04-22T14:05:32.952Z,2.30
2019-04-22T14:08:04.879Z,1.97
2019-04-22T14:10:34.488Z,1.97
2019-04-22T14:13:05.736Z,2.60
2019-04-22T14:15:36.092Z,2.07
2019-04-22T14:18:07.277Z,2.47
2019-04-22T14:20:38.579Z,2.20
2019-04-22T14:23:09.749Z,3.70
2019-04-22T14:25:40.850Z,1.70
2019-04-22T14:28:16.989Z,2.10
2019-04-22T14:30:42.628Z,1.53
2019-04-22T14:33:12.265Z,2.47
2019-04-22T14:35:43.573Z,2.13
2019-04-22T14:38:14.196Z,2.40
2019-04-22T14:40:45.463Z,2.27
2019-04-22T14:43:44.872Z,1.80
2019-04-22T14:46:17.919Z,1.70
2019-04-22T14:48:46.012Z,1.97
2019-04-22T14:51:07.623Z,1.80
2019-04-22T14:53:41.129Z,1.67
2019-04-22T14:55:52.670Z,1.40
2019-04-22T14:58:22.739Z,2.23
2019-04-22T15:00:53.741Z,2.10
2019-04-22T15:03:24.062Z,1.13
2019-04-22T15:05:54.479Z,2.30
2019-04-22T15:08:24.789Z,1.83
2019-04-22T15:10:55.875Z,2.23
2019-04-22T15:13:25.552Z,2.13
2019-04-22T15:16:18.241Z,1.73
2019-04-22T15:18:53.797Z,1.47
2019-04-22T15:21:25.152Z,1.77
2019-04-22T15:23:56.274Z,2.10
2019-04-22T15:26:26.459Z,1.90
2019-04-22T15:28:57.618Z,1.17
2019-04-22T15:31:27.437Z,1.70
2019-04-22T15:33:58.446Z,2.30
2019-04-22T15:36:28.372Z,1.73
2019-04-22T15:38:59.374Z,2.50
2019-04-22T15:41:30.530Z,1.50
2019-04-22T15:44:01.846Z,2.30
2019-04-22T15:46:32.091Z,2.60
2019-04-22T15:49:02.118Z,1.47
2019-04-22T15:51:31.966Z,2.30
2019-04-22T15:54:01.571Z,1.97
2019-04-22T15:56:32.685Z,2.13
2019-04-22T15:59:15.650Z,2.20
2019-04-22T16:01:37.383Z,1.60
2019-04-22T16:04:05.089Z,2.00
2019-04-22T16:06:34.747Z,1.80
2019-04-22T16:09:06.792Z,2.00
2019-04-22T16:11:37.775Z,2.10
2019-04-22T16:14:08.649Z,1.90
2019-04-22T16:16:38.899Z,2.27
2019-04-22T16:19:08.785Z,1.83
2019-04-22T16:21:46.530Z,2.10
2019-04-22T16:24:27.928Z,1.90
2019-04-22T16:27:08.785Z,1.77
2019-04-22T16:29:39.248Z,1.80
2019-04-22T16:32:09.638Z,1.70
2019-04-22T16:34:40.261Z,1.90
2019-04-22T16:37:10.587Z,1.70
2019-04-22T16:39:42.071Z,1.87
2019-04-22T16:42:24.946Z,1.93
2019-04-22T16:44:45.975Z,1.97
2019-04-22T16:47:15.519Z,2.13
2019-04-22T16:49:45.679Z,1.93
2019-04-22T16:52:16.253Z,2.30
2019-04-22T16:54:46.481Z,2.10
2019-04-22T16:57:17.753Z,1.90
2019-04-22T16:59:48.740Z,1.90
2019-04-22T17:02:51.827Z,2.33
2019-04-22T17:05:53.797Z,2.20
2019-04-22T17:08:24.528Z,1.80
2019-04-22T17:10:55.656Z,2.07
2019-04-22T17:13:30.270Z,1.90
2019-04-22T17:16:00.418Z,2.20
2019-04-22T17:18:29.062Z,2.40
2019-04-22T17:20:58.642Z,2.10
2019-04-22T17:23:29.675Z,2.23
2019-04-22T17:26:00.670Z,2.33
2019-04-22T17:28:31.313Z,2.43
2019-04-22T17:31:01.897Z,2.40
2019-04-22T17:33:32.788Z,2.43
2019-04-22T17:36:03.344Z,2.10
2019-04-22T17:38:42.805Z,3.23
2019-04-22T17:41:18.229Z,2.13
2019-04-22T17:43:58.876Z,2.13
2019-04-22T17:46:29.183Z,3.23
2019-04-22T17:49:18.955Z,2.30
2019-04-22T17:52:07.572Z,2.47
2019-04-22T17:54:35.871Z,2.20
2019-04-22T17:57:06.309Z,2.90
2019-04-22T17:59:40.898Z,2.57
2019-04-22T18:02:08.674Z,2.37
2019-04-22T18:04:20.918Z,2.20
2019-04-22T18:07:18.903Z,2.30
2019-04-22T18:10:08.610Z,2.00
2019-04-22T18:12:19.600Z,2.27
2019-04-22T18:14:51.595Z,1.80
2019-04-22T18:17:22.297Z,2.23
2019-04-22T18:19:50.832Z,2.50
2019-04-22T18:22:12.442Z,2.57
2019-04-22T18:24:46.302Z,2.13
2019-04-22T18:27:34.276Z,2.30
2019-04-22T18:29:51.957Z,2.20
2019-04-22T18:32:13.562Z,2.43
2019-04-22T18:34:49.520Z,2.33
2019-04-22T18:37:20.980Z,2.23
2019-04-22T18:42:31.396Z,2.17
2019-04-22T18:45:30.012Z,2.60
2019-04-22T18:47:38.996Z,2.07
2019-04-22T18:50:10.566Z,2.40
2019-04-22T18:53:14.444Z,2.30
2019-04-22T18:55:47.374Z,2.30
2019-04-22T18:58:16.610Z,2.40
2019-04-22T19:00:36.299Z,2.50
2019-04-22T19:03:13.494Z,2.53
2019-04-22T19:05:56.645Z,2.37
2019-04-22T19:08:44.816Z,2.37
2019-04-22T19:11:08.536Z,2.53
2019-04-22T19:16:19.739Z,2.40
2019-04-22T19:18:41.532Z,2.17
2019-04-22T19:21:20.934Z,2.23
2019-04-22T19:23:37.811Z,2.20
2019-04-22T19:26:15.500Z,2.13
2019-04-22T19:28:58.775Z,2.33
2019-04-22T19:31:19.427Z,2.70
2019-04-22T19:33:49.284Z,3.80
2019-04-22T19:36:36.409Z,2.43
2019-04-22T19:38:48.714Z,2.77
2019-04-22T19:41:24.169Z,2.73
2019-04-22T19:43:50.276Z,2.90
2019-04-22T19:46:19.341Z,3.13
2019-04-22T19:48:56.530Z,2.93
2019-04-22T19:51:28.069Z,2.60
2019-04-22T19:53:56.221Z,2.70
2019-04-22T19:56:22.795Z,2.67
2019-04-22T19:58:57.371Z,2.83
2019-04-22T20:02:00.750Z,2.50
2019-04-22T20:04:46.090Z,3.03
2019-04-22T20:07:12.684Z,3.23
2019-04-22T20:09:47.900Z,2.50
2019-04-22T20:12:16.500Z,2.73
2019-04-22T20:14:49.534Z,3.17
2019-04-22T20:17:24.146Z,3.10
2019-04-22T20:19:55.299Z,2.83
2019-04-22T20:22:23.618Z,3.00
2019-04-22T20:24:44.822Z,3.80
2019-04-22T20:27:42.784Z,3.10
2019-04-22T20:29:58.141Z,2.60
2019-04-22T20:32:27.866Z,2.60
2019-04-22T20:35:02.772Z,3.60
2019-04-22T20:37:35.705Z,3.00
2019-04-22T20:40:02.580Z,3.33
2019-04-22T20:42:45.141Z,3.17
2019-04-22T20:45:09.626Z,2.90
2019-04-22T20:47:30.455Z,3.13
2019-04-22T20:50:12.249Z,3.23
2019-04-22T20:52:52.821Z,3.40
2019-04-22T20:55:08.035Z,3.00
2019-04-22T20:57:49.512Z,3.20
2019-04-22T21:00:12.004Z,3.23
2019-04-22T21:02:37.475Z,3.50
2019-04-22T21:05:09.473Z,2.70
2019-04-22T21:07:49.871Z,3.40
2019-04-22T21:10:16.939Z,2.83
2019-04-22T21:12:41.818Z,2.70
2019-04-22T21:15:28.344Z,2.77
2019-04-22T21:17:51.315Z,2.80
2019-04-22T21:20:33.297Z,2.80
2019-04-22T21:22:58.235Z,3.23
2019-04-22T21:25:20.906Z,2.90
2019-04-22T21:28:04.623Z,2.93
2019-04-22T21:30:32.360Z,3.03
2019-04-22T21:32:58.031Z,2.30
2019-04-22T21:35:47.167Z,3.27
2019-04-22T21:38:08.355Z,2.40
2019-04-22T21:40:37.583Z,2.53
2019-04-22T21:43:12.679Z,2.30
2019-04-22T21:45:35.347Z,2.13
2019-04-22T21:48:20.000Z,2.20
2019-04-22T21:50:48.073Z,2.63
2019-04-22T21:53:22.723Z,2.00
2019-04-22T21:55:50.813Z,2.40
2019-04-22T21:58:24.507Z,2.20
2019-04-22T22:01:13.025Z,2.20
2019-04-22T22:03:38.114Z,2.17
2019-04-22T22:05:58.708Z,2.13
2019-04-22T22:08:40.324Z,2.50
2019-04-22T22:11:06.462Z,2.00
2019-04-22T22:13:39.183Z,2.77
2019-04-22T22:16:12.833Z,2.60
2019-04-22T22:18:42.115Z,2.33
2019-04-22T22:21:33.399Z,2.00
2019-04-22T22:23:55.918Z,1.93
2019-04-22T22:26:15.566Z,2.00
2019-04-22T22:31:33.312Z,1.93
2019-04-22T22:33:54.380Z,2.00
2019-04-22T22:36:20.719Z,2.70
2019-04-22T22:38:46.865Z,1.50
2019-04-22T22:41:05.891Z,1.90
2019-04-22T22:43:42.034Z,1.50
2019-04-22T22:46:18.968Z,1.50
2019-04-22T22:48:58.192Z,1.90
2019-04-22T22:51:39.618Z,2.37
2019-04-22T22:54:06.331Z,1.83
2019-04-22T22:56:40.951Z,1.80
2019-04-22T22:59:06.122Z,2.00
2019-04-22T23:01:36.093Z,1.93
2019-04-22T23:04:09.266Z,2.07
2019-04-22T23:06:39.163Z,2.00
2019-04-22T23:09:10.159Z,2.47
2019-04-22T23:11:58.560Z,2.30
2019-04-22T23:14:06.925Z,1.97
2019-04-22T23:16:31.537Z,2.20
2019-04-22T23:19:05.108Z,1.90
2019-04-22T23:21:41.614Z,2.13
2019-04-22T23:24:28.232Z,1.60
2019-04-22T23:27:11.724Z,1.20
2019-04-22T23:29:53.268Z,2.20
2019-04-22T23:32:25.022Z,1.90
2019-04-22T23:35:23.119Z,1.83
2019-04-22T23:38:01.419Z,2.53
2019-04-22T23:40:37.168Z,2.40
2019-04-22T23:43:07.075Z,1.57
2019-04-22T23:45:33.295Z,2.10
2019-04-22T23:48:03.396Z,1.97
2019-04-22T23:50:37.757Z,1.80
2019-04-22T23:53:42.690Z,2.27
2019-04-22T23:56:00.284Z,1.67
2019-04-22T23:58:49.250Z,1.50
